• Join FlightAware (Why Join?)
  • Login
  • US Flag 
10:52PM EDT


 

Airport Tracker/Info


-or-


 

Live Flight TrackerFlight Track Log ✈ FLG3520 ✈ 29-Jul-2013 ✈ KORD - KJFK

Flight Track Log - Related Links

Times and Time Zones

All times are in EDT time to prevent confusion due to time zone crossing. See the FLG3520 flight status page for this flight to view local times or setup timezone preferences in your user account.

Time Position Orientation Groundspeed Altitude Reporting Facility
EDT Latitude Longitude Course Direction KTS MPH feet Rate Location/Type
01:23PM 42.0167 -87.9500 90° East 184 212 2,500  Level Chicago TRACON
01:24PM 42.0667 -87.9000 37° Northeast 237 273 4,200 1,260 Climbing Chicago TRACON
01:24PM 42.1167 -87.8500 37° Northeast 272 313 5,000 1,620 Climbing Chicago TRACON
01:25PM 42.0586 -87.3110 78° East  Level FlightAware Approximate
01:25PM 42.1833 -87.7833 37° Northeast 276 318 7,300  Level Chicago TRACON
01:26PM 42.0815 -87.1623 78° East  Level FlightAware Approximate
01:27PM 42.1028 -87.0136 79° East  Level FlightAware Approximate
01:27PM 42.1747 -87.6261 94° East 301 346 11,100  Level Chicago Center
01:28PM 42.1167 -86.8601 90° East  Level FlightAware Approximate
01:28PM 42.1611 -87.5089 99° East 314 361 13,600  Level Chicago Center
01:29PM 42.1472 -87.3828 98° East 333 383 15,700 1,740 Climbing Chicago Center
01:30PM 42.1283 -87.2169 99° East 381 438 17,200 1,620 Climbing Chicago Center
01:31PM 42.1133 -87.0675 98° East 401 461 19,100 1,620 Climbing Chicago Center
01:32PM 42.1172 -86.9333 88° East 408 470 20,600 1,680 Climbing Chicago Center
01:33PM 42.1228 -86.7417 88° East 425 489 22,600 1,740 Climbing Chicago Center
01:34PM 42.1294 -86.5778 87° East 436 502 24,200 1,380 Climbing Chicago Center
01:35PM 42.1353 -86.4094 87° East 447 514 25,500 1,200 Climbing Chicago Center
01:36PM 42.1403 -86.2375 88° East 457 526 26,800 1,200 Climbing Chicago Center
01:37PM 42.1447 -86.0572 88° East 474 545 28,000 1,200 Climbing Chicago Center
01:38PM 42.1425 -85.8542 91° East 485 558 29,400 1,140 Climbing Chicago Center
01:39PM 42.1406 -85.6714 91° East 490 564 30,400 1,320 Climbing Chicago Center
01:40PM 42.1389 -85.4867 91° East 495 570 32,200 1,500 Climbing Chicago Center
01:41PM 42.1381 -85.3075 90° East 485 558 33,600 1,320 Climbing Chicago Center
01:42PM 42.1347 -85.0956 91° East 477 549 35,000 1,080 Climbing Chicago Center
01:43PM 42.1319 -84.9197 91° East 474 545 35,900 720 Climbing Chicago Center
01:44PM 42.1283 -84.7414 92° East 477 549 36,600 480 Climbing Chicago Center
01:45PM 42.1264 -84.5603 91° East 481 554 37,000 180 Climbing Chicago Center
01:47PM 42.1339 -84.3797 87° East 487 560 37,000  Level Chicago Center
01:47PM 42.1475 -84.1794 85° East 478 550 37,000  Level Cleveland Center
01:48PM 42.1511 -83.9919 88° East 483 556 37,000  Level Cleveland Center
01:49PM 42.1564 -83.8072 88° East 488 562 37,000  Level Cleveland Center
01:50PM 42.1592 -83.6281 89° East 488 562 37,000  Level Cleveland Center
01:51PM 42.1683 -83.4436 86° East 494 568 37,000  Level Cleveland Center
01:52PM 42.1728 -83.2589 88° East 494 568 37,000  Level Cleveland Center
01:53PM 42.1722 -83.0936 90° East 494 568 37,000  Level Cleveland Center
01:54PM 42.1781 -82.9117 87° East 489 563 37,000  Level Cleveland Center
01:55PM 42.1794 -82.7350 89° East 483 556 37,000  Level Cleveland Center
01:56PM 42.1847 -82.5531 88° East 477 549 37,000  Level Cleveland Center
01:57PM 42.1856 -82.3739 90° East 477 549 37,000  Level Cleveland Center
01:58PM 42.1906 -82.1944 88° East 477 549 37,000  Level Cleveland Center
01:59PM 42.1931 -81.9983 89° East 477 549 37,000  Level Cleveland Center
02:00PM 42.1950 -81.8164 89° East 477 549 37,000  Level Cleveland Center
02:01PM 42.1969 -81.6369 89° East 477 549 37,000  Level Cleveland Center
02:02PM 42.1983 -81.4547 89° East 477 549 37,000  Level Cleveland Center
02:03PM 42.1914 -81.2725 93° East 477 549 37,000  Level Cleveland Center
02:04PM 42.1778 -81.0931 96° East 482 555 37,000  Level Cleveland Center
02:05PM 42.1636 -80.9333 97° East 482 555 37,000  Level Cleveland Center
02:06PM 42.1494 -80.7511 96° East 487 560 37,000  Level Cleveland Center
02:07PM 42.1331 -80.5692 97° East 487 560 37,000  Level Cleveland Center
02:08PM 42.1183 -80.3872 96° East 481 554 37,000  Level Cleveland Center
02:09PM 42.1011 -80.2108 97° East 481 554 37,000  Level Cleveland Center
02:10PM 42.0836 -80.0125 97° East 481 554 37,000  Level Cleveland Center
02:11PM 42.0658 -79.8392 98° East 481 554 37,000  Level Cleveland Center
02:12PM 42.0522 -79.6547 96° East 481 554 37,000  Level Cleveland Center
02:13PM 42.0339 -79.4761 98° East 486 559 37,000  Level Cleveland Center
02:14PM 42.0153 -79.2975 98° East 486 559 37,000  Level Cleveland Center
02:15PM 41.9986 -79.1192 97° East 481 554 37,000  Level Cleveland Center
02:16PM 41.9794 -78.9408 98° East 481 554 37,000  Level Cleveland Center
02:17PM 41.9622 -78.7542 97° East 481 554 37,000  Level Cleveland Center
02:18PM 41.9425 -78.5703 98° East 486 559 37,000  Level Cleveland Center
02:19PM 41.9222 -78.3814 98° East 491 565 37,000  Level Cleveland Center
02:20PM 41.9019 -78.1978 98° East 498 573 37,000  Level Cleveland Center
02:23PM 41.8489 -77.7989 100° East 515 593 37,000  Level New York Center
02:24PM 41.8028 -77.6217 109° East 509 586 37,000  Level New York Center
02:25PM 41.7528 -77.4411 110° East 509 586 37,000  Level New York Center
02:26PM 41.7083 -77.2644 109° East 509 586 37,000  Level New York Center
02:27PM 41.6597 -77.0875 110° East 504 580 37,000  Level New York Center
02:28PM 41.6122 -76.9167 110° East 504 580 37,000  Level New York Center
02:29PM 41.5650 -76.7403 110° East 504 580 37,000 -540 Level New York Center
02:30PM 41.5247 -76.5869 109° East 499 574 36,000  Descending New York Center
02:31PM 41.4789 -76.4142 109° East 499 574 37,000 -120 Climbing New York Center
02:32PM 41.4289 -76.2383 111° Southeast 499 574 35,800 -1,920 Descending New York Center
02:33PM 41.3786 -76.0628 111° Southeast 504 580 33,200 -2,580 Descending New York Center
02:34PM 41.3239 -75.8817 112° Southeast 494 568 30,600 -2,580 Descending New York Center
02:35PM 41.2789 -75.7156 110° East 484 557 28,200 -2,340 Descending New York Center
02:36PM 41.2272 -75.5544 113° Southeast 478 550 26,100 -2,160 Descending New York Center
02:37PM 41.1731 -75.3989 115° Southeast 472 543 23,900 -1,560 Descending New York Center
02:38PM 41.1228 -75.2442 113° Southeast 461 531 23,000 -480 Descending New York Center
02:39PM 41.0722 -75.0922 114° Southeast 456 525 23,000  Level New York Center
02:40PM 41.0253 -74.9461 113° Southeast 456 525 23,000 -60 Level New York Center
02:41PM 40.9889 -74.7928 107° East 455 524 22,900 -660 Descending New York Center
02:42PM 41.0081 -74.6592 79° East 395 455 21,700 -1,140 Descending New York Center
02:43PM 41.0167 -74.5219 85° East 376 433 20,700 -900 Descending New York Center
02:44PM 40.9831 -74.3939 109° East 376 433 20,000 -660 Descending New York Center
02:45PM 40.9475 -74.2628 110° East 370 426 19,500 -540 Descending New York Center
02:46PM 40.9136 -74.1403 110° East 365 420 19,000 -960 Descending New York Center
02:47PM 40.8586 -74.0194 121° Southeast 352 405 17,600 -1,440 Descending New York Center
02:48PM 40.8133 -73.9269 123° Southeast 342 394 16,200 -840 Descending New York Center
02:49PM 40.7558 -73.8175 125° Southeast 337 388 16,000 -600 Descending New York Center
02:50PM 40.6928 -73.7517 142° Southeast 319 367 15,100 -1,260 Descending New York Center
02:51PM 40.6153 -73.6881 148° Southeast 309 356 13,500 -1,500 Descending New York Center
02:52PM 40.5558 -73.6447 151° Southeast 284 327 12,100 -1,440 Descending New York Center
02:53PM 40.4986 -73.5958 147° Southeast 255 293 10,700 -1,620 Descending New York Center
02:54PM 40.4283 -73.5739 167° South 241 277 9,000 -1,380 Descending New York Center
02:55PM 40.3719 -73.5797 185° South 232 267 8,000 -1,020 Descending New York Center
02:56PM 40.3089 -73.6097 200° South 232 267 7,000 -1,320 Descending New York Center
02:57PM 40.2783 -73.6656 234° Southwest 214 246 5,500 -1,560 Descending New York Center
02:58PM 40.2992 -73.7481 288° West 202 232 3,900 -1,080 Descending New York Center
02:59PM 40.3167 -73.8500 283° West 212 244 3,000 -420 Descending New York TRACON
03:00PM 40.3500 -73.9167 303° West 226 260 3,000  Level New York TRACON
03:01PM 40.4000 -73.9667 323° Northwest 213 245 3,000  Level New York TRACON
03:02PM 40.4500 -73.9833 346° North 194 223 3,000  Level New York TRACON
03:03PM 40.5000 -73.9833 360° North 183 211 3,000 -180 Level New York TRACON
03:04PM 40.5500 -73.9500 27° Northeast 179 206 2,700 -720 Descending New York TRACON
03:05PM 40.5833 -73.9167 37° Northeast 176 203 1,600 -720 Descending New York TRACON
03:06PM 40.6333 -73.8833 27° Northeast 178 205 1,300 -480 Descending New York TRACON
03:07PM 40.6667 -73.8333 49° Northeast 159 183 600 -660 Descending New York TRACON